sensor_id;sensor_type;location;lat;lon;timestamp;pressure;altitude;pressure_sealevel;temperature;humidity
36092;BME280;22147;52.388;13.390;2024-01-30T00:01:16;102191.13;;;-3.50;100.00
36092;BME280;22147;52.388;13.390;2024-01-30T00:03:46;102186.75;;;-3.51;100.00
36092;BME280;22147;52.388;13.390;2024-01-30T00:06:20;102176.25;;;-3.54;100.00
36092;BME280;22147;52.388;13.390;2024-01-30T00:08:51;102172.72;;;-3.55;100.00
36092;BME280;22147;52.388;13.390;2024-01-30T00:11:21;102175.03;;;-3.52;100.00
36092;BME280;22147;52.388;13.390;2024-01-30T00:13:52;102176.06;;;-3.53;100.00
36092;BME280;22147;52.388;13.390;2024-01-30T00:16:24;102171.88;;;-3.55;100.00
36092;BME280;22147;52.388;13.390;2024-01-30T00:18:55;102176.69;;;-3.57;100.00
36092;BME280;22147;52.388;13.390;2024-01-30T00:21:26;102173.50;;;-3.61;100.00
36092;BME280;22147;52.388;13.390;2024-01-30T00:23:56;102169.31;;;-3.63;100.00
36092;BME280;22147;52.388;13.390;2024-01-30T00:26:26;102171.38;;;-3.65;100.00
36092;BME280;22147;52.388;13.390;2024-01-30T00:28:56;102178.72;;;-3.66;100.00
36092;BME280;22147;52.388;13.390;2024-01-30T00:31:27;102174.50;;;-3.69;100.00
36092;BME280;22147;52.388;13.390;2024-01-30T00:33:57;102174.72;;;-3.70;100.00
36092;BME280;22147;52.388;13.390;2024-01-30T00:36:28;102170.47;;;-3.73;100.00
36092;BME280;22147;52.388;13.390;2024-01-30T00:39:00;102167.34;;;-3.76;100.00
36092;BME280;22147;52.388;13.390;2024-01-30T00:41:30;102171.09;;;-3.77;100.00
36092;BME280;22147;52.388;13.390;2024-01-30T00:44:00;102163.53;;;-3.82;100.00
36092;BME280;22147;52.388;13.390;2024-01-30T00:46:30;102161.00;;;-3.83;100.00
36092;BME280;22147;52.388;13.390;2024-01-30T00:49:01;102165.59;;;-3.84;100.00
36092;BME280;22147;52.388;13.390;2024-01-30T00:51:31;102167.50;;;-3.84;100.00
36092;BME280;22147;52.388;13.390;2024-01-30T00:54:02;102166.84;;;-3.86;100.00
36092;BME280;22147;52.388;13.390;2024-01-30T00:56:32;102165.16;;;-3.88;100.00
36092;BME280;22147;52.388;13.390;2024-01-30T00:59:03;102162.66;;;-3.89;100.00
36092;BME280;22147;52.388;13.390;2024-01-30T01:01:33;102171.00;;;-3.91;100.00
36092;BME280;22147;52.388;13.390;2024-01-30T01:04:04;102157.59;;;-3.92;100.00
36092;BME280;22147;52.388;13.390;2024-01-30T01:06:34;102165.97;;;-3.94;100.00
36092;BME280;22147;52.388;13.390;2024-01-30T01:09:04;102156.97;;;-3.94;100.00
36092;BME280;22147;52.388;13.390;2024-01-30T01:11:35;102172.41;;;-3.95;100.00
36092;BME280;22147;52.388;13.390;2024-01-30T01:14:05;102170.75;;;-3.96;100.00
36092;BME280;22147;52.388;13.390;2024-01-30T01:16:35;102166.16;;;-3.95;100.00
36092;BME280;22147;52.388;13.390;2024-01-30T01:19:07;102171.59;;;-3.95;100.00
36092;BME280;22147;52.388;13.390;2024-01-30T01:21:37;102166.16;;;-3.95;100.00
36092;BME280;22147;52.388;13.390;2024-01-30T01:24:08;102160.72;;;-3.95;100.00
36092;BME280;22147;52.388;13.390;2024-01-30T01:26:38;102163.63;;;-3.97;100.00
36092;BME280;22147;52.388;13.390;2024-01-30T01:29:09;102160.91;;;-3.97;100.00
36092;BME280;22147;52.388;13.390;2024-01-30T01:31:41;102168.41;;;-3.99;100.00
36092;BME280;22147;52.388;13.390;2024-01-30T01:34:14;102169.88;;;-3.96;100.00
36092;BME280;22147;52.388;13.390;2024-01-30T01:36:44;102171.78;;;-3.97;100.00
36092;BME280;22147;52.388;13.390;2024-01-30T01:39:15;102162.59;;;-3.96;100.00
36092;BME280;22147;52.388;13.390;2024-01-30T01:41:46;102169.88;;;-3.96;100.00
36092;BME280;22147;52.388;13.390;2024-01-30T01:44:20;102161.75;;;-3.96;100.00
36092;BME280;22147;52.388;13.390;2024-01-30T01:46:52;102165.97;;;-3.94;100.00
36092;BME280;22147;52.388;13.390;2024-01-30T01:49:27;102157.81;;;-3.94;100.00
36092;BME280;22147;52.388;13.390;2024-01-30T01:51:59;102163.25;;;-3.94;100.00
36092;BME280;22147;52.388;13.390;2024-01-30T01:54:31;102164.91;;;-3.93;100.00
36092;BME280;22147;52.388;13.390;2024-01-30T01:57:03;102164.09;;;-3.93;100.00
36092;BME280;22147;52.388;13.390;2024-01-30T01:59:34;102153.22;;;-3.93;100.00
36092;BME280;22147;52.388;13.390;2024-01-30T02:02:11;102152.59;;;-3.95;100.00
36092;BME280;22147;52.388;13.390;2024-01-30T02:04:43;102153.41;;;-3.95;100.00
36092;BME280;22147;52.388;13.390;2024-01-30T02:07:11;102161.56;;;-3.95;100.00
36092;BME280;22147;52.388;13.390;2024-01-30T02:09:39;102161.75;;;-3.96;100.00
36092;BME280;22147;52.388;13.390;2024-01-30T02:12:08;102149.03;;;-3.96;100.00
36092;BME280;22147;52.388;13.390;2024-01-30T02:14:47;102147.16;;;-3.95;100.00
36092;BME280;22147;52.388;13.390;2024-01-30T02:17:18;102147.16;;;-3.95;100.00
36092;BME280;22147;52.388;13.390;2024-01-30T02:19:49;102153.41;;;-3.95;100.00
36092;BME280;22147;52.388;13.390;2024-01-30T02:22:21;102152.78;;;-3.97;100.00
36092;BME280;22147;52.388;13.390;2024-01-30T02:24:52;102157.38;;;-3.97;100.00
36092;BME280;22147;52.388;13.390;2024-01-30T02:27:22;102148.41;;;-3.98;100.00
36092;BME280;22147;52.388;13.390;2024-01-30T02:29:53;102164.47;;;-3.96;100.00
36092;BME280;22147;52.388;13.390;2024-01-30T02:32:23;102166.53;;;-3.98;100.00
36092;BME280;22147;52.388;13.390;2024-01-30T02:34:53;102161.31;;;-4.00;100.00
36092;BME280;22147;52.388;13.390;2024-01-30T02:37:23;102158.78;;;-4.01;100.00
36092;BME280;22147;52.388;13.390;2024-01-30T02:39:54;102158.78;;;-4.01;100.00
36092;BME280;22147;52.388;13.390;2024-01-30T02:42:24;102156.28;;;-4.03;100.00
36092;BME280;22147;52.388;13.390;2024-01-30T02:44:54;102155.25;;;-4.02;100.00
36092;BME280;22147;52.388;13.390;2024-01-30T02:47:25;102151.66;;;-4.02;100.00
36092;BME280;22147;52.388;13.390;2024-01-30T02:49:55;102146.47;;;-4.04;100.00
36092;BME280;22147;52.388;13.390;2024-01-30T02:52:26;102149.19;;;-4.04;100.00
36092;BME280;22147;52.388;13.390;2024-01-30T02:54:56;102147.28;;;-4.03;100.00
36092;BME280;22147;52.388;13.390;2024-01-30T02:57:26;102144.41;;;-4.02;100.00
36092;BME280;22147;52.388;13.390;2024-01-30T02:59:57;102151.66;;;-4.02;100.00
36092;BME280;22147;52.388;13.390;2024-01-30T03:02:27;102138.31;;;-4.04;100.00
36092;BME280;22147;52.388;13.390;2024-01-30T03:04:57;102137.47;;;-4.04;100.00
36092;BME280;22147;52.388;13.390;2024-01-30T03:07:28;102139.16;;;-4.03;100.00
36092;BME280;22147;52.388;13.390;2024-01-30T03:09:58;102141.88;;;-4.03;100.00
36092;BME280;22147;52.388;13.390;2024-01-30T03:12:29;102141.88;;;-4.03;100.00
36092;BME280;22147;52.388;13.390;2024-01-30T03:14:59;102130.19;;;-4.04;100.00
36092;BME280;22147;52.388;13.390;2024-01-30T03:17:29;102125.38;;;-4.02;100.00
36092;BME280;22147;52.388;13.390;2024-01-30T03:20:00;102130.81;;;-4.02;100.00
36092;BME280;22147;52.388;13.390;2024-01-30T03:22:30;102131.47;;;-4.00;100.00
36092;BME280;22147;52.388;13.390;2024-01-30T03:24:58;102133.13;;;-3.99;100.00
36092;BME280;22147;52.388;13.390;2024-01-30T03:27:28;102129.41;;;-3.98;100.00
36092;BME280;22147;52.388;13.390;2024-01-30T03:29:58;102129.59;;;-3.99;100.00
36092;BME280;22147;52.388;13.390;2024-01-30T03:32:29;102129.78;;;-4.01;100.00
36092;BME280;22147;52.388;13.390;2024-01-30T03:34:59;102128.09;;;-4.02;100.00
36092;BME280;22147;52.388;13.390;2024-01-30T03:37:30;102122.88;;;-4.03;100.00
36092;BME280;22147;52.388;13.390;2024-01-30T03:40:02;102123.06;;;-4.05;100.00
36092;BME280;22147;52.388;13.390;2024-01-30T03:42:33;102124.09;;;-4.06;100.00
36092;BME280;22147;52.388;13.390;2024-01-30T03:45:04;102125.97;;;-4.06;100.00
36092;BME280;22147;52.388;13.390;2024-01-30T03:47:35;102118.88;;;-4.07;100.00
36092;BME280;22147;52.388;13.390;2024-01-30T03:50:05;102121.78;;;-4.09;100.00
36092;BME280;22147;52.388;13.390;2024-01-30T03:52:36;102111.13;;;-4.11;100.00
36092;BME280;22147;52.388;13.390;2024-01-30T03:55:06;102122.00;;;-4.11;100.00
36092;BME280;22147;52.388;13.390;2024-01-30T03:57:37;102121.13;;;-4.11;100.00
36092;BME280;22147;52.388;13.390;2024-01-30T04:00:08;102117.56;;;-4.12;100.00
36092;BME280;22147;52.388;13.390;2024-01-30T04:02:39;102119.47;;;-4.12;100.00
36092;BME280;22147;52.388;13.390;2024-01-30T04:05:10;102122.19;;;-4.12;100.00
36092;BME280;22147;52.388;13.390;2024-01-30T04:07:40;102115.28;;;-4.15;100.00
36092;BME280;22147;52.388;13.390;2024-01-30T04:10:11;102120.47;;;-4.13;100.00
36092;BME280;22147;52.388;13.390;2024-01-30T04:12:41;102119.66;;;-4.14;100.00
36092;BME280;22147;52.388;13.390;2024-01-30T04:15:12;102126.13;;;-4.15;100.00
36092;BME280;22147;52.388;13.390;2024-01-30T04:17:44;102117.13;;;-4.15;100.00
36092;BME280;22147;52.388;13.390;2024-01-30T04:20:15;102119.66;;;-4.14;100.00
36092;BME280;22147;52.388;13.390;2024-01-30T04:22:46;102120.69;;;-4.15;100.00
36092;BME280;22147;52.388;13.390;2024-01-30T04:25:17;102121.53;;;-4.14;100.00
36092;BME280;22147;52.388;13.390;2024-01-30T04:27:47;102119.84;;;-4.15;100.00
36092;BME280;22147;52.388;13.390;2024-01-30T04:30:18;102116.47;;;-4.17;100.00
36092;BME280;22147;52.388;13.390;2024-01-30T04:32:48;102117.53;;;-4.18;100.00
36092;BME280;22147;52.388;13.390;2024-01-30T04:35:17;102116.69;;;-4.19;100.00
36092;BME280;22147;52.388;13.390;2024-01-30T04:37:52;102110.41;;;-4.19;100.00
36092;BME280;22147;52.388;13.390;2024-01-30T04:40:23;102122.13;;;-4.19;100.00
36092;BME280;22147;52.388;13.390;2024-01-30T04:42:53;102111.28;;;-4.19;100.00
36092;BME280;22147;52.388;13.390;2024-01-30T04:45:22;102108.56;;;-4.19;100.00
36092;BME280;22147;52.388;13.390;2024-01-30T04:47:50;102117.34;;;-4.17;100.00
36092;BME280;22147;52.388;13.390;2024-01-30T04:50:18;102114.63;;;-4.17;100.00
36092;BME280;22147;52.388;13.390;2024-01-30T04:52:47;102114.63;;;-4.17;100.00
36092;BME280;22147;52.388;13.390;2024-01-30T04:55:15;102116.47;;;-4.17;100.00
36092;BME280;22147;52.388;13.390;2024-01-30T04:57:47;102110.03;;;-4.16;100.00
36092;BME280;22147;52.388;13.390;2024-01-30T05:00:15;102116.47;;;-4.17;100.00
36092;BME280;22147;52.388;13.390;2024-01-30T05:02:44;102122.38;;;-4.14;100.00
36092;BME280;22147;52.388;13.390;2024-01-30T05:05:12;102106.28;;;-4.15;100.00
36092;BME280;22147;52.388;13.390;2024-01-30T05:07:41;102112.56;;;-4.15;100.00
36092;BME280;22147;52.388;13.390;2024-01-30T05:10:09;102113.38;;;-4.14;100.00
36092;BME280;22147;52.388;13.390;2024-01-30T05:12:39;102112.56;;;-4.15;100.00
36092;BME280;22147;52.388;13.390;2024-01-30T05:15:10;102110.69;;;-4.14;100.00
36092;BME280;22147;52.388;13.390;2024-01-30T05:17:40;102114.41;;;-4.15;100.00
36092;BME280;22147;52.388;13.390;2024-01-30T05:20:11;102110.88;;;-4.16;100.00
36092;BME280;22147;52.388;13.390;2024-01-30T05:22:42;102115.47;;;-4.16;100.00
36092;BME280;22147;52.388;13.390;2024-01-30T05:25:15;102115.28;;;-4.15;100.00
36092;BME280;22147;52.388;13.390;2024-01-30T05:27:45;102117.13;;;-4.15;100.00
36092;BME280;22147;52.388;13.390;2024-01-30T05:30:16;102111.69;;;-4.15;100.00
36092;BME280;22147;52.388;13.390;2024-01-30T05:32:46;102109.38;;;-4.18;100.00
36092;BME280;22147;52.388;13.390;2024-01-30T05:35:16;102112.09;;;-4.18;100.00
36092;BME280;22147;52.388;13.390;2024-01-30T05:37:44;102113.75;;;-4.17;100.00
36092;BME280;22147;52.388;13.390;2024-01-30T05:40:14;102108.56;;;-4.19;100.00
36092;BME280;22147;52.388;13.390;2024-01-30T05:42:43;102111.47;;;-4.20;100.00
36092;BME280;22147;52.388;13.390;2024-01-30T05:45:13;102106.69;;;-4.18;100.00
36092;BME280;22147;52.388;13.390;2024-01-30T05:47:44;102105.63;;;-4.17;100.00
36092;BME280;22147;52.388;13.390;2024-01-30T05:50:14;102111.06;;;-4.17;100.00
36092;BME280;22147;52.388;13.390;2024-01-30T05:52:44;102104.78;;;-4.18;100.00
36092;BME280;22147;52.388;13.390;2024-01-30T05:55:15;102103.78;;;-4.17;100.00
36092;BME280;22147;52.388;13.390;2024-01-30T05:57:45;102115.47;;;-4.16;100.00
36092;BME280;22147;52.388;13.390;2024-01-30T06:00:17;102103.78;;;-4.17;100.00
36092;BME280;22147;52.388;13.390;2024-01-30T06:02:47;102105.63;;;-4.17;100.00
36092;BME280;22147;52.388;13.390;2024-01-30T06:05:17;102102.09;;;-4.18;100.00
36092;BME280;22147;52.388;13.390;2024-01-30T06:07:47;102094.78;;;-4.17;100.00
36092;BME280;22147;52.388;13.390;2024-01-30T06:10:18;102104.59;;;-4.16;100.00
36092;BME280;22147;52.388;13.390;2024-01-30T06:12:48;102103.56;;;-4.15;100.00
36092;BME280;22147;52.388;13.390;2024-01-30T06:15:19;102102.53;;;-4.14;100.00
36092;BME280;22147;52.388;13.390;2024-01-30T06:17:49;102098.59;;;-4.12;100.00
36092;BME280;22147;52.388;13.390;2024-01-30T06:20:19;102103.00;;;-4.11;100.00
36092;BME280;22147;52.388;13.390;2024-01-30T06:22:50;102109.25;;;-4.10;100.00
36092;BME280;22147;52.388;13.390;2024-01-30T06:25:20;102098.41;;;-4.10;100.00
36092;BME280;22147;52.388;13.390;2024-01-30T06:27:50;102100.06;;;-4.09;100.00
36092;BME280;22147;52.388;13.390;2024-01-30T06:30:21;102099.03;;;-4.08;100.00
36092;BME280;22147;52.388;13.390;2024-01-30T06:32:51;102091.72;;;-4.07;100.00
36092;BME280;22147;52.388;13.390;2024-01-30T06:35:22;102091.53;;;-4.06;100.00
36092;BME280;22147;52.388;13.390;2024-01-30T06:37:52;102093.38;;;-4.06;100.00
36092;BME280;22147;52.388;13.390;2024-01-30T06:40:22;102095.09;;;-4.05;100.00
36092;BME280;22147;52.388;13.390;2024-01-30T06:42:52;102093.84;;;-4.03;100.00
36092;BME280;22147;52.388;13.390;2024-01-30T06:45:23;102086.53;;;-4.02;100.00
36092;BME280;22147;52.388;13.390;2024-01-30T06:47:53;102086.53;;;-4.02;100.00
36092;BME280;22147;52.388;13.390;2024-01-30T06:50:23;102091.78;;;-4.01;100.00
36092;BME280;22147;52.388;13.390;2024-01-30T06:52:54;102095.97;;;-3.98;100.00
36092;BME280;22147;52.388;13.390;2024-01-30T06:55:24;102089.69;;;-3.99;100.00
36092;BME280;22147;52.388;13.390;2024-01-30T06:57:52;102090.53;;;-3.98;100.00
36092;BME280;22147;52.388;13.390;2024-01-30T07:00:22;102093.88;;;-3.96;100.00
36092;BME280;22147;52.388;13.390;2024-01-30T07:02:53;102097.25;;;-3.94;100.00
36092;BME280;22147;52.388;13.390;2024-01-30T07:05:23;102096.00;;;-3.92;100.00
36092;BME280;22147;52.388;13.390;2024-01-30T07:07:54;102092.50;;;-3.85;100.00
36092;BME280;22147;52.388;13.390;2024-01-30T07:10:24;102094.00;;;-3.83;100.00
36092;BME280;22147;52.388;13.390;2024-01-30T07:12:55;102098.81;;;-3.78;100.00
36092;BME280;22147;52.388;13.390;2024-01-30T07:15:25;102094.69;;;-3.74;100.00
36092;BME280;22147;52.388;13.390;2024-01-30T07:17:55;102100.97;;;-3.67;100.00
36092;BME280;22147;52.388;13.390;2024-01-30T07:20:26;102103.13;;;-3.56;100.00
36092;BME280;22147;52.388;13.390;2024-01-30T07:22:56;102102.34;;;-3.43;100.00
36092;BME280;22147;52.388;13.390;2024-01-30T07:25:27;102101.34;;;-3.35;100.00
36092;BME280;22147;52.388;13.390;2024-01-30T07:28:00;102098.03;;;-3.31;100.00
36092;BME280;22147;52.388;13.390;2024-01-30T07:30:30;102103.69;;;-3.25;100.00
36092;BME280;22147;52.388;13.390;2024-01-30T07:33:00;102089.50;;;-3.21;100.00
36092;BME280;22147;52.388;13.390;2024-01-30T07:35:31;102089.53;;;-3.14;100.00
36092;BME280;22147;52.388;13.390;2024-01-30T07:38:01;102087.66;;;-3.07;100.00
36092;BME280;22147;52.388;13.390;2024-01-30T07:40:31;102092.28;;;-3.01;100.00
36092;BME280;22147;52.388;13.390;2024-01-30T07:43:03;102094.19;;;-2.95;100.00
36092;BME280;22147;52.388;13.390;2024-01-30T07:45:34;102092.97;;;-2.85;100.00
36092;BME280;22147;52.388;13.390;2024-01-30T07:48:05;102087.13;;;-2.76;100.00
36092;BME280;22147;52.388;13.390;2024-01-30T07:50:35;102087.34;;;-2.64;100.00
36092;BME280;22147;52.388;13.390;2024-01-30T07:53:03;102082.34;;;-2.54;100.00
36092;BME280;22147;52.388;13.390;2024-01-30T07:55:31;102087.56;;;-2.46;100.00
36092;BME280;22147;52.388;13.390;2024-01-30T07:58:00;102095.31;;;-2.36;100.00
36092;BME280;22147;52.388;13.390;2024-01-30T08:00:31;102094.69;;;-2.25;100.00
36092;BME280;22147;52.388;13.390;2024-01-30T08:03:01;102094.47;;;-2.10;100.00
36092;BME280;22147;52.388;13.390;2024-01-30T08:05:31;102087.78;;;-1.94;100.00
36092;BME280;22147;52.388;13.390;2024-01-30T08:08:02;102088.16;;;-1.77;100.00
36092;BME280;22147;52.388;13.390;2024-01-30T08:10:33;102096.31;;;-1.70;100.00
36092;BME280;22147;52.388;13.390;2024-01-30T08:13:04;102087.09;;;-1.62;100.00
36092;BME280;22147;52.388;13.390;2024-01-30T08:15:34;102091.47;;;-1.55;100.00
36092;BME280;22147;52.388;13.390;2024-01-30T08:18:05;102090.59;;;-1.49;100.00
36092;BME280;22147;52.388;13.390;2024-01-30T08:20:37;102092.91;;;-1.46;100.00
36092;BME280;22147;52.388;13.390;2024-01-30T08:23:07;102083.47;;;-1.43;100.00
36092;BME280;22147;52.388;13.390;2024-01-30T08:25:38;102081.53;;;-1.36;100.00
36092;BME280;22147;52.388;13.390;2024-01-30T08:28:08;102072.47;;;-1.23;100.00
36092;BME280;22147;52.388;13.390;2024-01-30T08:30:39;102070.75;;;-1.11;100.00
36092;BME280;22147;52.388;13.390;2024-01-30T08:33:09;102056.00;;;-0.96;100.00
36092;BME280;22147;52.388;13.390;2024-01-30T08:35:40;102068.88;;;-0.78;100.00
36092;BME280;22147;52.388;13.390;2024-01-30T08:38:10;102062.06;;;-0.63;100.00
36092;BME280;22147;52.388;13.390;2024-01-30T08:40:42;102065.91;;;-0.45;100.00
36092;BME280;22147;52.388;13.390;2024-01-30T08:43:13;102070.84;;;-0.29;100.00
36092;BME280;22147;52.388;13.390;2024-01-30T08:45:43;102058.97;;;-0.16;100.00
36092;BME280;22147;52.388;13.390;2024-01-30T08:48:14;102070.00;;;-0.04;100.00
36092;BME280;22147;52.388;13.390;2024-01-30T08:50:44;102065.69;;;0.07;100.00
36092;BME280;22147;52.388;13.390;2024-01-30T08:53:14;102069.78;;;0.16;100.00
36092;BME280;22147;52.388;13.390;2024-01-30T08:55:45;102078.31;;;0.26;100.00
36092;BME280;22147;52.388;13.390;2024-01-30T08:58:15;102072.78;;;0.33;100.00
36092;BME280;22147;52.388;13.390;2024-01-30T09:00:48;102077.56;;;0.37;100.00
36092;BME280;22147;52.388;13.390;2024-01-30T09:03:18;102074.91;;;0.49;100.00
36092;BME280;22147;52.388;13.390;2024-01-30T09:05:49;102066.31;;;0.64;100.00
36092;BME280;22147;52.388;13.390;2024-01-30T09:08:19;102068.06;;;0.77;100.00
36092;BME280;22147;52.388;13.390;2024-01-30T09:10:50;102070.63;;;0.90;100.00
36092;BME280;22147;52.388;13.390;2024-01-30T09:13:20;102072.34;;;1.03;100.00
36092;BME280;22147;52.388;13.390;2024-01-30T09:15:50;102080.59;;;1.15;100.00
36092;BME280;22147;52.388;13.390;2024-01-30T09:18:21;102081.72;;;1.26;100.00
36092;BME280;22147;52.388;13.390;2024-01-30T09:20:54;102081.72;;;1.37;100.00
36092;BME280;22147;52.388;13.390;2024-01-30T09:23:27;102080.97;;;1.49;100.00
36092;BME280;22147;52.388;13.390;2024-01-30T09:25:58;102085.25;;;1.56;100.00
36092;BME280;22147;52.388;13.390;2024-01-30T09:28:29;102081.91;;;1.54;100.00
36092;BME280;22147;52.388;13.390;2024-01-30T09:30:59;102078.72;;;1.57;100.00
36092;BME280;22147;52.388;13.390;2024-01-30T09:33:29;102079.69;;;1.63;100.00
36092;BME280;22147;52.388;13.390;2024-01-30T09:36:00;102078.72;;;1.69;100.00
36092;BME280;22147;52.388;13.390;2024-01-30T09:38:27;102072.06;;;1.77;100.00
36092;BME280;22147;52.388;13.390;2024-01-30T09:41:05;102079.44;;;1.88;100.00
36092;BME280;22147;52.388;13.390;2024-01-30T09:43:48;102070.06;;;1.96;100.00
36092;BME280;22147;52.388;13.390;2024-01-30T09:46:23;102075.56;;;2.08;100.00
36092;BME280;22147;52.388;13.390;2024-01-30T09:48:59;102081.50;;;2.16;99.24
36092;BME280;22147;52.388;13.390;2024-01-30T09:51:32;102073.03;;;2.30;98.30
36092;BME280;22147;52.388;13.390;2024-01-30T09:54:04;102071.34;;;2.40;98.28
36092;BME280;22147;52.388;13.390;2024-01-30T09:56:34;102058.31;;;2.48;97.81
36092;BME280;22147;52.388;13.390;2024-01-30T09:59:04;102068.00;;;2.50;96.83
36092;BME280;22147;52.388;13.390;2024-01-30T10:01:36;102062.63;;;2.55;96.54
36092;BME280;22147;52.388;13.390;2024-01-30T10:04:07;102067.22;;;2.67;95.14
36092;BME280;22147;52.388;13.390;2024-01-30T10:06:38;102064.47;;;2.78;94.77
36092;BME280;22147;52.388;13.390;2024-01-30T10:09:10;102068.25;;;2.89;93.11
36092;BME280;22147;52.388;13.390;2024-01-30T10:11:40;102058.31;;;3.00;92.97
36092;BME280;22147;52.388;13.390;2024-01-30T10:14:11;102062.94;;;3.11;91.34
36092;BME280;22147;52.388;13.390;2024-01-30T10:16:41;102061.22;;;3.22;92.33
36092;BME280;22147;52.388;13.390;2024-01-30T10:19:11;102054.00;;;3.33;91.68
36092;BME280;22147;52.388;13.390;2024-01-30T10:21:42;102050.00;;;3.40;91.15
36092;BME280;22147;52.388;13.390;2024-01-30T10:24:13;102059.97;;;3.46;89.89
36092;BME280;22147;52.388;13.390;2024-01-30T10:26:44;102060.41;;;3.55;88.33
36092;BME280;22147;52.388;13.390;2024-01-30T10:29:14;102058.06;;;3.64;88.48
36092;BME280;22147;52.388;13.390;2024-01-30T10:31:44;102049.75;;;3.76;87.51
36092;BME280;22147;52.388;13.390;2024-01-30T10:34:15;102045.69;;;3.78;87.19
36092;BME280;22147;52.388;13.390;2024-01-30T10:37:09;102047.84;;;3.93;84.41
36092;BME280;22147;52.388;13.390;2024-01-30T10:39:45;102054.09;;;3.88;82.35
36092;BME280;22147;52.388;13.390;2024-01-30T10:42:18;102042.69;;;3.97;84.37
36092;BME280;22147;52.388;13.390;2024-01-30T10:45:06;102041.09;;;4.01;83.97
36092;BME280;22147;52.388;13.390;2024-01-30T10:47:44;102045.34;;;4.08;82.20
36092;BME280;22147;52.388;13.390;2024-01-30T10:50:26;102045.22;;;4.20;79.85
36092;BME280;22147;52.388;13.390;2024-01-30T10:52:59;102052.41;;;4.21;80.92
36092;BME280;22147;52.388;13.390;2024-01-30T10:55:33;102037.72;;;4.16;81.70
36092;BME280;22147;52.388;13.390;2024-01-30T10:58:05;102043.28;;;4.21;80.80
36092;BME280;22147;52.388;13.390;2024-01-30T11:00:36;102046.03;;;4.21;80.73
36092;BME280;22147;52.388;13.390;2024-01-30T11:03:07;102043.88;;;4.23;81.31
36092;BME280;22147;52.388;13.390;2024-01-30T11:05:41;102043.03;;;4.22;81.20
36092;BME280;22147;52.388;13.390;2024-01-30T11:08:14;102042.41;;;4.15;81.42
36092;BME280;22147;52.388;13.390;2024-01-30T11:10:47;102038.81;;;4.15;81.75
36092;BME280;22147;52.388;13.390;2024-01-30T11:13:19;102039.75;;;4.03;79.37
36092;BME280;22147;52.388;13.390;2024-01-30T11:15:50;102035.47;;;4.13;81.79
36092;BME280;22147;52.388;13.390;2024-01-30T11:18:25;102039.25;;;4.06;81.20
36092;BME280;22147;52.388;13.390;2024-01-30T11:20:57;102038.50;;;4.11;81.81
36092;BME280;22147;52.388;13.390;2024-01-30T11:23:34;102037.78;;;4.21;81.04
36092;BME280;22147;52.388;13.390;2024-01-30T11:26:06;102033.97;;;4.22;80.72
36092;BME280;22147;52.388;13.390;2024-01-30T11:28:37;102031.63;;;4.31;80.38
36092;BME280;22147;52.388;13.390;2024-01-30T11:31:08;102023.69;;;4.34;81.78
36092;BME280;22147;52.388;13.390;2024-01-30T11:33:39;102030.94;;;4.40;81.72
36092;BME280;22147;52.388;13.390;2024-01-30T11:36:13;102023.56;;;4.46;80.23
36092;BME280;22147;52.388;13.390;2024-01-30T11:38:47;102026.97;;;4.53;80.60
36092;BME280;22147;52.388;13.390;2024-01-30T11:41:18;102027.59;;;4.60;80.27
36092;BME280;22147;52.388;13.390;2024-01-30T11:43:53;102027.41;;;4.67;79.62
36092;BME280;22147;52.388;13.390;2024-01-30T11:46:25;102027.06;;;4.63;79.61
36092;BME280;22147;52.388;13.390;2024-01-30T11:48:56;102022.72;;;4.67;80.22
36092;BME280;22147;52.388;13.390;2024-01-30T11:51:26;102029.25;;;4.61;79.24
36092;BME280;22147;52.388;13.390;2024-01-30T11:53:57;102030.16;;;4.67;78.84
36092;BME280;22147;52.388;13.390;2024-01-30T11:56:28;102024.59;;;4.62;80.45
36092;BME280;22147;52.388;13.390;2024-01-30T11:58:58;102018.94;;;4.74;80.28
36092;BME280;22147;52.388;13.390;2024-01-30T12:01:31;102011.38;;;4.86;79.77
36092;BME280;22147;52.388;13.390;2024-01-30T12:04:03;102010.88;;;4.89;79.47
36092;BME280;22147;52.388;13.390;2024-01-30T12:06:39;102003.38;;;4.84;80.22
36092;BME280;22147;52.388;13.390;2024-01-30T12:09:10;102007.59;;;4.92;80.18
36092;BME280;22147;52.388;13.390;2024-01-30T12:11:49;102006.81;;;4.97;79.93
36092;BME280;22147;52.388;13.390;2024-01-30T12:14:22;102006.38;;;5.10;79.10
36092;BME280;22147;52.388;13.390;2024-01-30T12:16:55;102002.31;;;5.13;78.49
36092;BME280;22147;52.388;13.390;2024-01-30T12:19:25;101997.09;;;5.16;78.38
36092;BME280;22147;52.388;13.390;2024-01-30T12:21:57;102003.91;;;5.08;79.26
36092;BME280;22147;52.388;13.390;2024-01-30T12:24:29;101994.75;;;5.03;80.86
36092;BME280;22147;52.388;13.390;2024-01-30T12:27:02;101995.13;;;5.12;80.35
36092;BME280;22147;52.388;13.390;2024-01-30T12:29:33;101986.38;;;5.20;79.94
36092;BME280;22147;52.388;13.390;2024-01-30T12:32:07;101981.69;;;5.20;81.33
36092;BME280;22147;52.388;13.390;2024-01-30T12:34:41;101974.66;;;5.29;80.82
36092;BME280;22147;52.388;13.390;2024-01-30T12:37:25;101977.09;;;5.31;80.22
36092;BME280;22147;52.388;13.390;2024-01-30T12:39:56;101970.53;;;5.32;80.40
36092;BME280;22147;52.388;13.390;2024-01-30T12:42:27;101965.28;;;5.30;80.81
36092;BME280;22147;52.388;13.390;2024-01-30T12:44:58;101966.16;;;5.36;80.98
36092;BME280;22147;52.388;13.390;2024-01-30T12:47:29;101960.09;;;5.39;81.32
36092;BME280;22147;52.388;13.390;2024-01-30T12:50:00;101957.56;;;5.33;81.58
36092;BME280;22147;52.388;13.390;2024-01-30T12:52:31;101955.50;;;5.50;79.41
36092;BME280;22147;52.388;13.390;2024-01-30T12:55:01;101951.41;;;5.53;78.93